createdAt,value
2022-12-12T00:00:47.490Z,24.58
2022-12-12T00:03:17.398Z,23.83
2022-12-12T00:05:48.662Z,25.10
2022-12-12T00:08:22.507Z,25.00
2022-12-12T00:10:54.062Z,23.83
2022-12-12T00:13:25.970Z,28.98
2022-12-12T00:15:55.592Z,25.17
2022-12-12T00:18:24.863Z,25.98
2022-12-12T00:20:56.778Z,27.20
2022-12-12T00:23:27.614Z,27.15
2022-12-12T00:26:04.841Z,31.90
2022-12-12T00:28:33.973Z,27.25
2022-12-12T00:31:05.708Z,27.35
2022-12-12T00:33:37.606Z,27.48
2022-12-12T00:36:07.566Z,28.67
2022-12-12T00:38:39.460Z,31.63
2022-12-12T00:41:14.939Z,37.47
2022-12-12T00:43:48.534Z,33.38
2022-12-12T00:46:23.258Z,29.93
2022-12-12T00:48:58.910Z,27.25
2022-12-12T00:51:28.770Z,28.48
2022-12-12T00:54:02.181Z,26.15
2022-12-12T00:56:34.341Z,25.17
2022-12-12T00:59:06.273Z,27.60
2022-12-12T01:01:44.655Z,24.45
2022-12-12T01:04:15.583Z,25.98
2022-12-12T01:06:43.631Z,25.15
2022-12-12T01:09:17.220Z,24.38
2022-12-12T01:11:49.748Z,27.20
2022-12-12T01:14:21.021Z,25.33
2022-12-12T01:16:55.498Z,24.33
2022-12-12T01:19:24.640Z,24.90
2022-12-12T01:21:56.995Z,22.83
2022-12-12T01:24:33.285Z,24.63
2022-12-12T01:27:01.922Z,23.70
2022-12-12T01:29:36.527Z,26.88
2022-12-12T01:32:06.066Z,22.20
2022-12-12T01:34:35.944Z,22.45
2022-12-12T01:37:07.126Z,25.40
2022-12-12T01:39:34.611Z,24.48
2022-12-12T01:42:07.053Z,22.27
2022-12-12T01:44:47.629Z,21.67
2022-12-12T01:47:22.621Z,23.58
2022-12-12T01:50:07.910Z,22.23
2022-12-12T01:52:51.605Z,23.90
2022-12-12T01:55:34.833Z,24.73
2022-12-12T01:58:08.178Z,20.55
2022-12-12T02:00:39.194Z,22.75
2022-12-12T02:03:14.127Z,22.83
2022-12-12T02:08:49.185Z,24.95
2022-12-12T02:11:19.814Z,23.92
2022-12-12T02:13:55.417Z,26.67
2022-12-12T02:16:45.225Z,26.58
2022-12-12T02:19:43.751Z,26.92
2022-12-12T02:22:51.927Z,25.85
2022-12-12T02:25:54.619Z,26.70
2022-12-12T02:28:34.750Z,26.75
2022-12-12T02:31:29.039Z,28.92
2022-12-12T02:34:04.799Z,27.70
2022-12-12T02:37:03.003Z,29.58
2022-12-12T02:40:02.062Z,29.13
2022-12-12T02:43:35.406Z,27.30
2022-12-12T02:46:44.815Z,30.50
2022-12-12T02:49:54.246Z,29.55
2022-12-12T02:52:25.329Z,29.70
2022-12-12T02:54:56.318Z,29.17
2022-12-12T02:57:27.411Z,31.33
2022-12-12T03:00:16.775Z,32.40
2022-12-12T03:03:30.875Z,28.65
2022-12-12T03:06:55.494Z,27.92
2022-12-12T03:09:45.382Z,28.25
2022-12-12T03:13:01.679Z,29.67
2022-12-12T03:16:11.879Z,31.67
2022-12-12T03:19:07.543Z,30.98
2022-12-12T03:21:52.904Z,28.83
2022-12-12T03:25:00.547Z,28.98
2022-12-12T03:27:56.779Z,31.08
2022-12-12T03:30:28.445Z,30.90
2022-12-12T03:33:20.829Z,28.70
2022-12-12T03:36:37.158Z,31.02
2022-12-12T03:39:15.962Z,28.23
2022-12-12T03:41:54.151Z,29.95
2022-12-12T03:44:38.157Z,30.10
2022-12-12T03:47:33.011Z,29.30
2022-12-12T03:50:24.200Z,26.67
2022-12-12T03:53:11.978Z,26.27
2022-12-12T03:55:58.128Z,29.95
2022-12-12T03:58:48.506Z,30.02
2022-12-12T04:01:24.722Z,28.38
2022-12-12T04:04:28.609Z,28.45
2022-12-12T04:10:16.223Z,28.67
2022-12-12T04:13:33.046Z,31.02
2022-12-12T04:16:28.433Z,34.90
2022-12-12T04:19:44.762Z,35.67
2022-12-12T04:22:42.258Z,37.33
2022-12-12T04:25:58.560Z,36.78
2022-12-12T04:28:52.356Z,34.00
2022-12-12T04:31:29.210Z,34.03
2022-12-12T04:34:04.078Z,34.33
2022-12-12T04:36:58.871Z,30.98
2022-12-12T04:39:31.534Z,28.33
2022-12-12T04:42:02.163Z,28.10
2022-12-12T04:44:35.688Z,22.85
2022-12-12T04:47:12.362Z,22.05
2022-12-12T04:49:44.725Z,24.58
2022-12-12T04:52:19.654Z,25.67
2022-12-12T04:55:06.406Z,24.65
2022-12-12T04:57:53.090Z,26.73
2022-12-12T05:00:21.697Z,23.10
2022-12-12T05:03:31.095Z,22.70
2022-12-12T05:06:12.369Z,19.67
2022-12-12T05:08:54.649Z,21.05
2022-12-12T05:11:24.184Z,24.85
2022-12-12T05:13:57.415Z,23.48
2022-12-12T05:16:38.698Z,23.08
2022-12-12T05:19:06.903Z,20.90
2022-12-12T05:21:38.042Z,22.80
2022-12-12T05:24:06.808Z,19.48
2022-12-12T05:26:52.481Z,18.92
2022-12-12T05:29:22.899Z,17.63
2022-12-12T05:31:54.073Z,17.63
2022-12-12T05:34:23.384Z,18.17
2022-12-12T05:36:53.735Z,19.15
2022-12-12T05:39:23.467Z,17.67
2022-12-12T05:41:55.837Z,19.15
2022-12-12T05:44:28.363Z,17.48
2022-12-12T05:46:56.820Z,19.45
2022-12-12T05:49:27.450Z,17.38
2022-12-12T05:51:55.300Z,17.13
2022-12-12T05:54:22.398Z,20.05
2022-12-12T05:56:52.762Z,19.60
2022-12-12T05:59:25.784Z,22.05
2022-12-12T06:01:56.314Z,21.23
2022-12-12T06:04:26.131Z,19.55
2022-12-12T06:07:01.425Z,17.10
2022-12-12T06:09:33.615Z,20.67
2022-12-12T06:12:04.274Z,17.10
2022-12-12T06:14:36.575Z,19.92
2022-12-12T06:17:06.291Z,18.90
2022-12-12T06:19:37.702Z,18.70
2022-12-12T06:22:08.146Z,18.33
2022-12-12T06:24:38.326Z,21.13
2022-12-12T06:27:07.032Z,20.63
2022-12-12T06:29:38.521Z,21.30
2022-12-12T06:32:11.058Z,20.13
2022-12-12T06:34:43.579Z,20.23
2022-12-12T06:37:17.011Z,20.13
2022-12-12T06:39:47.344Z,15.35
2022-12-12T06:42:16.919Z,22.85
2022-12-12T06:44:46.065Z,19.27
2022-12-12T06:47:18.019Z,20.42
2022-12-12T06:49:48.229Z,20.33
2022-12-12T06:52:19.223Z,18.88
2022-12-12T06:54:53.619Z,21.90
2022-12-12T06:57:25.819Z,18.30
2022-12-12T06:59:56.619Z,18.55
2022-12-12T07:02:29.941Z,22.38
2022-12-12T07:07:31.655Z,27.08
2022-12-12T07:10:03.632Z,22.45
2022-12-12T07:12:34.697Z,21.23
2022-12-12T07:15:09.411Z,25.98
2022-12-12T07:17:40.662Z,22.50
2022-12-12T07:20:11.306Z,20.58
2022-12-12T07:22:41.833Z,25.33
2022-12-12T07:25:12.073Z,19.98
2022-12-12T07:27:41.998Z,18.70
2022-12-12T07:30:17.519Z,22.38
2022-12-12T07:32:47.869Z,20.88
2022-12-12T07:35:18.862Z,20.95
2022-12-12T07:37:48.029Z,20.48
2022-12-12T07:40:16.958Z,20.15
2022-12-12T07:42:49.767Z,19.00
2022-12-12T07:45:19.772Z,21.75
2022-12-12T07:47:50.235Z,21.42
2022-12-12T07:50:20.379Z,23.35
2022-12-12T07:52:51.588Z,19.13
2022-12-12T07:55:20.314Z,22.65
2022-12-12T07:57:55.513Z,20.55
2022-12-12T08:00:25.445Z,20.77
2022-12-12T08:02:57.995Z,20.90
2022-12-12T08:05:29.590Z,21.35
2022-12-12T08:07:59.369Z,19.08
2022-12-12T08:10:28.397Z,20.23
2022-12-12T08:12:59.611Z,25.40
2022-12-12T08:15:29.634Z,21.98
2022-12-12T08:17:57.108Z,19.90
2022-12-12T08:20:26.774Z,24.70
2022-12-12T08:22:56.602Z,19.70
2022-12-12T08:25:27.771Z,23.25
2022-12-12T08:28:04.221Z,21.08
2022-12-12T08:30:38.786Z,23.40
2022-12-12T08:33:08.343Z,23.92
2022-12-12T08:35:37.322Z,21.45
2022-12-12T08:38:06.786Z,19.55
2022-12-12T08:40:38.816Z,21.63
2022-12-12T08:43:19.173Z,21.17
2022-12-12T08:45:50.093Z,22.25
2022-12-12T08:48:18.590Z,19.50
2022-12-12T08:50:47.027Z,20.58
2022-12-12T08:53:17.727Z,22.27
2022-12-12T08:55:47.395Z,21.08
2022-12-12T08:58:24.237Z,22.33
2022-12-12T09:00:55.145Z,21.48
2022-12-12T09:03:29.464Z,21.20
2022-12-12T09:06:00.766Z,23.13
2022-12-12T09:08:28.770Z,22.45
2022-12-12T09:10:58.453Z,24.35
2022-12-12T09:13:30.818Z,26.35
2022-12-12T09:15:59.527Z,25.70
2022-12-12T09:18:27.592Z,26.20
2022-12-12T09:20:58.599Z,23.73
2022-12-12T09:23:31.850Z,24.85
2022-12-12T09:26:12.587Z,23.90
2022-12-12T09:28:42.645Z,23.33
2022-12-12T09:31:17.766Z,20.27
2022-12-12T09:33:50.553Z,21.83
2022-12-12T09:36:19.035Z,24.38
2022-12-12T09:38:50.599Z,22.15
2022-12-12T09:41:26.732Z,22.48
2022-12-12T09:44:19.734Z,20.90
2022-12-12T09:47:00.618Z,22.23
2022-12-12T09:49:44.386Z,25.20
2022-12-12T09:52:19.950Z,23.03
2022-12-12T09:54:50.648Z,22.75
2022-12-12T09:58:02.573Z,23.02
2022-12-12T10:00:38.011Z,25.38
2022-12-12T10:03:33.235Z,24.17
2022-12-12T10:09:25.252Z,21.10
2022-12-12T10:11:56.698Z,21.27
2022-12-12T10:15:09.394Z,19.88
2022-12-12T10:17:49.849Z,18.60
2022-12-12T10:20:23.787Z,22.63
2022-12-12T10:23:16.933Z,21.85
2022-12-12T10:26:00.762Z,22.63
2022-12-12T10:28:31.234Z,21.65
2022-12-12T10:31:21.854Z,21.30
2022-12-12T10:34:35.724Z,19.42
2022-12-12T10:37:06.350Z,20.48
2022-12-12T10:40:02.490Z,21.58
2022-12-12T10:42:57.512Z,21.20
2022-12-12T10:45:34.461Z,18.02
2022-12-12T10:48:05.061Z,22.20
2022-12-12T10:50:39.140Z,18.38
2022-12-12T10:53:14.034Z,20.88
2022-12-12T10:55:58.787Z,19.70
2022-12-12T11:01:44.894Z,19.83
2022-12-12T11:04:26.756Z,18.33
2022-12-12T11:06:57.709Z,20.90
2022-12-12T11:09:34.042Z,24.33
2022-12-12T11:12:21.961Z,22.13
2022-12-12T11:15:16.834Z,20.10
2022-12-12T11:17:48.022Z,25.63
2022-12-12T11:20:20.989Z,21.98
2022-12-12T11:22:59.136Z,18.33
2022-12-12T11:25:32.773Z,19.00
2022-12-12T11:28:06.861Z,20.25
2022-12-12T11:30:39.616Z,18.63
2022-12-12T11:33:12.096Z,25.52
2022-12-12T11:35:47.766Z,20.25
2022-12-12T11:38:27.102Z,17.25
2022-12-12T11:41:14.901Z,18.38
2022-12-12T11:43:50.685Z,19.95
2022-12-12T11:46:21.882Z,21.58
2022-12-12T11:48:59.899Z,19.20
2022-12-12T11:51:45.170Z,22.77
2022-12-12T11:54:21.010Z,19.15
2022-12-12T11:57:18.389Z,22.38
2022-12-12T12:00:23.055Z,24.98
2022-12-12T12:03:23.899Z,21.83
2022-12-12T12:06:21.833Z,21.33
2022-12-12T12:08:57.123Z,18.48
2022-12-12T12:11:59.804Z,18.70
2022-12-12T12:15:01.657Z,18.50
2022-12-12T12:17:40.496Z,21.42
2022-12-12T12:20:48.287Z,22.98
2022-12-12T12:23:25.496Z,19.33
2022-12-12T12:26:46.662Z,22.13
2022-12-12T12:30:16.354Z,19.75
2022-12-12T12:33:12.410Z,20.15
2022-12-12T12:36:19.277Z,19.45
2022-12-12T12:39:37.190Z,20.75
2022-12-12T12:42:49.405Z,18.02
2022-12-12T12:45:27.576Z,22.80
2022-12-12T12:48:42.042Z,20.38
2022-12-12T12:51:52.293Z,20.25
2022-12-12T12:54:50.213Z,22.98
2022-12-12T12:57:40.882Z,19.70
2022-12-12T13:00:35.962Z,18.80
2022-12-12T13:03:17.642Z,18.92
2022-12-12T13:05:56.882Z,19.98
2022-12-12T13:08:34.209Z,22.02
2022-12-12T13:11:29.692Z,21.08
2022-12-12T13:14:04.772Z,23.85
2022-12-12T13:16:38.704Z,18.42
2022-12-12T13:19:36.253Z,22.83
2022-12-12T13:22:49.018Z,21.23
2022-12-12T13:25:33.826Z,27.40
2022-12-12T13:31:12.943Z,22.38
2022-12-12T13:34:00.203Z,20.90
2022-12-12T13:36:39.339Z,19.58
2022-12-12T13:39:30.886Z,18.73
2022-12-12T13:42:15.368Z,19.73
2022-12-12T13:44:57.977Z,18.27
2022-12-12T13:47:30.422Z,19.15
2022-12-12T13:50:13.312Z,16.15
2022-12-12T13:52:45.428Z,20.65
2022-12-12T13:55:20.214Z,22.58
2022-12-12T13:58:18.815Z,20.45
2022-12-12T14:00:51.298Z,19.42
2022-12-12T14:03:46.368Z,21.10
2022-12-12T14:08:57.025Z,22.30
2022-12-12T14:11:33.687Z,19.20
2022-12-12T14:14:08.798Z,20.58
2022-12-12T14:16:40.845Z,20.08
2022-12-12T14:19:26.547Z,18.40
2022-12-12T14:21:56.994Z,22.02
2022-12-12T14:24:41.794Z,19.00
2022-12-12T14:27:16.092Z,20.52
2022-12-12T14:29:46.005Z,27.55
2022-12-12T14:32:21.527Z,24.40
2022-12-12T14:35:14.782Z,20.60
2022-12-12T14:37:49.892Z,21.10
2022-12-12T14:40:35.230Z,21.80
2022-12-12T14:43:20.264Z,15.67
2022-12-12T14:45:59.410Z,22.27
2022-12-12T14:48:36.815Z,23.60
2022-12-12T14:51:31.318Z,20.50
2022-12-12T14:54:03.120Z,23.42
2022-12-12T14:56:36.795Z,26.55
2022-12-12T14:59:29.277Z,20.25
2022-12-12T15:02:26.465Z,27.35
2022-12-12T15:05:05.019Z,29.83
2022-12-12T15:07:39.326Z,23.95
2022-12-12T15:10:29.588Z,24.40
2022-12-12T15:12:59.707Z,22.88
2022-12-12T15:15:34.001Z,25.45
2022-12-12T15:18:02.874Z,24.10
2022-12-12T15:20:32.487Z,25.67
2022-12-12T15:23:06.208Z,24.60
2022-12-12T15:25:47.329Z,25.60
2022-12-12T15:28:21.085Z,26.77
2022-12-12T15:30:53.509Z,31.13
2022-12-12T15:33:26.379Z,32.15
2022-12-12T15:36:07.798Z,34.08
2022-12-12T15:38:37.076Z,30.92
2022-12-12T15:41:13.330Z,29.08
2022-12-12T15:43:44.104Z,29.13
2022-12-12T15:46:15.494Z,32.47
2022-12-12T15:48:44.436Z,35.13
2022-12-12T15:51:21.034Z,33.53
2022-12-12T15:53:56.315Z,34.90
2022-12-12T15:56:29.270Z,36.00
2022-12-12T15:59:17.132Z,33.63
2022-12-12T16:01:44.584Z,39.85
2022-12-12T16:04:14.954Z,38.75
2022-12-12T16:06:47.482Z,34.00
2022-12-12T16:09:21.256Z,32.35
2022-12-12T16:11:52.142Z,37.90
2022-12-12T16:14:41.640Z,33.10
2022-12-12T16:17:28.134Z,28.65
2022-12-12T16:20:15.821Z,28.42
2022-12-12T16:22:54.397Z,36.40
2022-12-12T16:25:46.703Z,32.08
2022-12-12T16:28:28.233Z,37.45
2022-12-12T16:31:04.898Z,32.75
2022-12-12T16:33:40.134Z,32.67
2022-12-12T16:36:10.875Z,32.13
2022-12-12T16:38:40.416Z,35.67
2022-12-12T16:41:28.503Z,35.90
2022-12-12T16:43:57.895Z,38.10
2022-12-12T16:46:32.558Z,45.13
2022-12-12T16:49:07.370Z,51.92
2022-12-12T16:51:43.623Z,48.42
2022-12-12T16:54:17.237Z,46.83
2022-12-12T16:56:53.026Z,48.28
2022-12-12T16:59:26.527Z,50.92
2022-12-12T17:01:54.456Z,59.43
2022-12-12T17:04:24.007Z,57.63
2022-12-12T17:06:54.160Z,50.03
2022-12-12T17:09:29.793Z,44.75
2022-12-12T17:12:02.654Z,45.00
2022-12-12T17:14:31.276Z,50.58
2022-12-12T17:16:58.532Z,51.20
2022-12-12T17:19:29.855Z,68.20
2022-12-12T17:21:58.590Z,81.65
2022-12-12T17:24:31.141Z,78.45
2022-12-12T17:26:59.483Z,62.28
2022-12-12T17:29:30.410Z,74.70
2022-12-12T17:31:59.633Z,68.30
2022-12-12T17:34:32.413Z,70.50
2022-12-12T17:36:59.558Z,73.10
2022-12-12T17:39:30.382Z,81.40
2022-12-12T17:42:01.045Z,93.63
2022-12-12T17:44:30.358Z,89.47
2022-12-12T17:46:57.450Z,90.88
2022-12-12T17:49:28.388Z,87.25
2022-12-12T17:51:59.800Z,79.72
2022-12-12T17:54:31.837Z,87.47
2022-12-12T17:57:00.624Z,92.65
2022-12-12T17:59:31.507Z,84.35
2022-12-12T18:02:00.746Z,72.40
2022-12-12T18:04:34.167Z,79.05
2022-12-12T18:07:05.057Z,82.95
2022-12-12T18:09:38.423Z,81.18
2022-12-12T18:12:09.626Z,78.70
2022-12-12T18:14:39.218Z,83.85
2022-12-12T18:17:07.574Z,86.45
2022-12-12T18:19:37.991Z,84.30
2022-12-12T18:22:09.045Z,85.47
2022-12-12T18:24:37.014Z,90.78
2022-12-12T18:27:07.149Z,85.38
2022-12-12T18:29:34.446Z,84.57
2022-12-12T18:32:05.045Z,81.95
2022-12-12T18:34:37.061Z,75.85
2022-12-12T18:37:06.803Z,88.65
2022-12-12T18:39:38.644Z,90.63
2022-12-12T18:42:10.018Z,80.75
2022-12-12T18:44:39.976Z,75.65
2022-12-12T18:47:08.579Z,71.38
2022-12-12T18:49:40.993Z,72.03
2022-12-12T18:52:08.318Z,77.45
2022-12-12T18:54:39.297Z,82.65
2022-12-12T18:57:07.856Z,81.22
2022-12-12T18:59:36.251Z,80.93
2022-12-12T19:02:09.735Z,86.97
2022-12-12T19:04:41.050Z,84.18
2022-12-12T19:07:13.391Z,82.20
2022-12-12T19:09:44.447Z,83.95
2022-12-12T19:12:14.104Z,82.03
2022-12-12T19:15:07.919Z,80.00
2022-12-12T19:17:32.935Z,81.35
2022-12-12T19:20:02.700Z,85.47
2022-12-12T19:22:47.057Z,80.30
2022-12-12T19:25:19.213Z,95.63
2022-12-12T19:27:47.485Z,92.75
2022-12-12T19:30:18.605Z,87.10
2022-12-12T19:32:51.281Z,83.22
2022-12-12T19:35:19.302Z,81.07
2022-12-12T19:37:46.569Z,83.80
2022-12-12T19:40:20.538Z,87.80
2022-12-12T19:42:51.143Z,83.75
2022-12-12T19:45:22.223Z,85.07
2022-12-12T19:47:52.505Z,79.55
2022-12-12T19:50:27.732Z,81.47
2022-12-12T19:52:59.183Z,72.15
2022-12-12T19:55:31.407Z,76.90
2022-12-12T19:58:04.907Z,79.70
2022-12-12T20:00:32.686Z,68.53
2022-12-12T20:03:03.003Z,73.88
2022-12-12T20:05:32.655Z,72.68
2022-12-12T20:08:00.701Z,74.32
2022-12-12T20:10:32.331Z,64.45
2022-12-12T20:13:02.520Z,74.45
2022-12-12T20:15:30.832Z,75.25
2022-12-12T20:18:01.042Z,70.85
2022-12-12T20:20:30.579Z,67.38
2022-12-12T20:23:03.585Z,69.18
2022-12-12T20:25:33.924Z,65.57
2022-12-12T20:28:03.377Z,64.65
2022-12-12T20:30:32.512Z,64.75
2022-12-12T20:33:00.611Z,67.47
2022-12-12T20:35:31.702Z,64.28
2022-12-12T20:38:02.994Z,71.63
2022-12-12T20:40:34.254Z,69.18
2022-12-12T20:43:05.847Z,63.95
2022-12-12T20:45:41.351Z,64.57
2022-12-12T20:48:08.571Z,64.57
2022-12-12T20:50:38.280Z,70.22
2022-12-12T20:53:05.694Z,73.93
2022-12-12T20:55:39.625Z,71.15
2022-12-12T20:58:09.225Z,67.10
2022-12-12T21:00:41.191Z,67.50
2022-12-12T21:03:15.390Z,69.32
2022-12-12T21:05:45.913Z,67.27
2022-12-12T21:08:14.586Z,65.65
2022-12-12T21:10:43.755Z,66.50
2022-12-12T21:13:14.331Z,63.95
2022-12-12T21:15:44.455Z,62.80
2022-12-12T21:18:13.769Z,64.78
2022-12-12T21:20:48.324Z,55.85
2022-12-12T21:23:21.186Z,55.90
2022-12-12T21:25:51.350Z,61.90
2022-12-12T21:28:18.714Z,60.60
2022-12-12T21:30:46.985Z,56.13
2022-12-12T21:33:15.979Z,56.60
2022-12-12T21:35:46.602Z,55.17
2022-12-12T21:38:18.602Z,58.78
2022-12-12T21:40:47.181Z,60.08
2022-12-12T21:43:15.751Z,54.83
2022-12-12T21:45:46.259Z,61.30
2022-12-12T21:48:15.495Z,56.88
2022-12-12T21:50:49.005Z,63.00
2022-12-12T21:53:39.090Z,54.47
2022-12-12T21:56:19.875Z,52.90
2022-12-12T21:58:58.243Z,59.60
2022-12-12T22:01:25.840Z,54.05
2022-12-12T22:03:58.626Z,51.67
2022-12-12T22:06:49.317Z,55.33
2022-12-12T22:09:20.176Z,59.70
2022-12-12T22:12:03.263Z,58.38
2022-12-12T22:14:34.311Z,58.20
2022-12-12T22:17:06.705Z,57.28
2022-12-12T22:19:35.869Z,57.58
2022-12-12T22:22:06.598Z,57.17
2022-12-12T22:24:34.740Z,50.72
2022-12-12T22:27:06.525Z,48.70
2022-12-12T22:29:38.109Z,49.78
2022-12-12T22:32:05.479Z,53.80
2022-12-12T22:34:38.443Z,48.35
2022-12-12T22:37:07.997Z,43.47
2022-12-12T22:39:35.456Z,48.22
2022-12-12T22:42:02.758Z,53.10
2022-12-12T22:44:32.934Z,51.97
2022-12-12T22:47:00.798Z,46.72
2022-12-12T22:49:30.975Z,48.95
2022-12-12T22:52:02.230Z,42.90
2022-12-12T22:54:34.747Z,43.35
2022-12-12T22:57:06.385Z,48.50
2022-12-12T22:59:33.699Z,43.72
2022-12-12T23:02:05.699Z,43.92
2022-12-12T23:04:34.200Z,41.67
2022-12-12T23:07:01.601Z,44.55
2022-12-12T23:09:31.560Z,42.03
2022-12-12T23:12:01.595Z,46.75
2022-12-12T23:14:32.898Z,40.45
2022-12-12T23:17:01.377Z,44.80
2022-12-12T23:19:29.972Z,49.53
2022-12-12T23:21:59.436Z,49.55
2022-12-12T23:24:29.710Z,56.55
2022-12-12T23:27:01.306Z,63.80
2022-12-12T23:29:28.990Z,61.00
2022-12-12T23:31:59.123Z,54.92
2022-12-12T23:34:31.951Z,56.08
2022-12-12T23:36:59.908Z,62.47
2022-12-12T23:39:32.263Z,63.88
2022-12-12T23:42:02.071Z,51.08
2022-12-12T23:44:31.483Z,49.50
2022-12-12T23:47:01.361Z,54.28
2022-12-12T23:49:31.423Z,53.75
2022-12-12T23:52:02.195Z,58.42
2022-12-12T23:54:37.633Z,61.78
2022-12-12T23:57:06.272Z,53.97
2022-12-12T23:59:37.750Z,59.25
